Time;durP1;ratioP1;P1;durP2;ratioP2;P2;SDS_P1;SDS_P2;PMS_P1;PMS_P2;Temp;Humidity;BMP_temperature;BMP_pressure;BME280_temperature;BME280_humidity;BME280_pressure;Samples;Min_cycle;Max_cycle;Signal;HPM_P1;HPM_P2
2021/12/21 00:00:57;;;;;;;19.60;10.35;;;;;;;;;;5031847;28;20092;-44
2021/12/21 00:03:23;;;;;;;19.35;10.88;;;;;;;;;;5031435;28;20033;-45
2021/12/21 00:05:49;;;;;;;24.55;13.85;;;;;;;;;;5031903;28;20037;-44
2021/12/21 00:08:17;;;;;;;24.35;12.70;;;;;;;;;;5032959;28;20493;-47
2021/12/21 00:10:47;;;;;;;23.75;14.00;;;;;;;;;;5032955;28;20029;-45
2021/12/21 00:13:36;;;;;;;34.20;15.88;;;;;;;;;;5032076;28;20036;-44
2021/12/21 00:19:25;;;;;;;30.25;15.48;;;;;;;;;;5016195;28;20147;-45
2021/12/21 00:21:57;;;;;;;21.98;12.45;;;;;;;;;;5032213;28;20292;-44
2021/12/21 00:24:31;;;;;;;28.23;13.52;;;;;;;;;;5032031;28;20152;-44
2021/12/21 00:26:58;;;;;;;55.50;26.83;;;;;;;;;;5032172;28;20474;-44
2021/12/21 00:29:24;;;;;;;31.10;13.48;;;;;;;;;;5032246;28;20028;-44
2021/12/21 00:31:55;;;;;;;31.05;14.73;;;;;;;;;;5031811;28;20030;-45
2021/12/21 00:34:22;;;;;;;25.37;13.00;;;;;;;;;;5032317;28;20574;-45
2021/12/21 00:36:53;;;;;;;40.10;18.00;;;;;;;;;;5032057;28;20738;-44
2021/12/21 00:39:19;;;;;;;25.08;13.98;;;;;;;;;;5032523;28;20025;-44
2021/12/21 00:41:45;;;;;;;22.20;11.63;;;;;;;;;;5031068;28;20040;-44
2021/12/21 00:44:11;;;;;;;21.27;11.18;;;;;;;;;;5031135;28;20037;-44
2021/12/21 00:46:39;;;;;;;22.45;12.77;;;;;;;;;;5031652;28;20362;-44
2021/12/21 00:49:13;;;;;;;26.50;13.57;;;;;;;;;;5032058;28;20470;-44
2021/12/21 00:51:40;;;;;;;30.90;15.30;;;;;;;;;;5031828;28;20045;-45
2021/12/21 00:54:06;;;;;;;26.00;13.13;;;;;;;;;;5032023;28;20080;-44
2021/12/21 00:56:32;;;;;;;21.27;10.95;;;;;;;;;;5033145;28;20053;-44
2021/12/21 00:58:58;;;;;;;28.38;15.45;;;;;;;;;;5033183;28;20025;-46
2021/12/21 01:01:27;;;;;;;24.60;12.65;;;;;;;;;;5033151;28;20033;-47
2021/12/21 01:03:55;;;;;;;36.97;18.45;;;;;;;;;;5033213;28;20036;-46
2021/12/21 01:06:27;;;;;;;26.13;13.77;;;;;;;;;;5033373;28;20473;-46
2021/12/21 01:09:18;;;;;;;24.65;12.82;;;;;;;;;;5033082;28;20028;-46
2021/12/21 01:11:50;;;;;;;25.83;13.70;;;;;;;;;;5033019;28;20029;-44
2021/12/21 01:17:16;;;;;;;34.53;17.73;;;;;;;;;;5032846;28;20123;-47
2021/12/21 01:19:51;;;;;;;24.60;12.97;;;;;;;;;;5033008;28;20037;-45
2021/12/21 01:22:35;;;;;;;34.83;18.73;;;;;;;;;;5032898;28;20025;-44
2021/12/21 01:25:34;;;;;;;41.40;19.88;;;;;;;;;;5032830;28;20044;-47
2021/12/21 01:28:11;;;;;;;24.65;12.68;;;;;;;;;;5032882;28;20022;-47
2021/12/21 01:35:41;;;;;;;38.42;18.25;;;;;;;;;;5032886;28;20037;-48
2021/12/21 01:40:45;;;;;;;21.23;11.63;;;;;;;;;;5032997;28;20112;-48
2021/12/21 01:43:25;;;;;;;18.58;9.52;;;;;;;;;;5032653;28;20018;-45
2021/12/21 01:51:27;;;;;;;35.97;18.30;;;;;;;;;;5032959;28;20111;-47
2021/12/21 01:53:53;;;;;;;25.23;11.07;;;;;;;;;;5035515;28;20017;-45
2021/12/21 01:56:20;;;;;;;24.45;12.85;;;;;;;;;;5035252;28;20400;-47
2021/12/21 01:58:46;;;;;;;41.65;20.38;;;;;;;;;;5036338;28;20057;-47
2021/12/21 02:01:14;;;;;;;27.13;13.45;;;;;;;;;;5036297;28;20543;-45
2021/12/21 02:03:47;;;;;;;23.42;11.88;;;;;;;;;;5036246;28;20474;-45
2021/12/21 02:06:14;;;;;;;34.80;17.42;;;;;;;;;;5036252;28;20108;-46
2021/12/21 02:08:40;;;;;;;27.73;14.90;;;;;;;;;;5036143;28;20421;-46
2021/12/21 02:11:06;;;;;;;15.70;7.72;;;;;;;;;;5036247;28;20100;-45
2021/12/21 02:13:36;;;;;;;28.35;14.40;;;;;;;;;;5035969;28;20029;-46
2021/12/21 02:16:05;;;;;;;19.08;9.07;;;;;;;;;;5035788;28;20504;-46
2021/12/21 02:21:30;;;;;;;16.20;9.10;;;;;;;;;;5035814;28;20053;-45
2021/12/21 02:23:49;;;;;;;13.13;7.97;;;;;;;;;;5035403;28;20508;-44
2021/12/21 02:29:25;;;;;;;19.58;10.57;;;;;;;;;;5036021;28;20528;-46
2021/12/21 02:31:50;;;;;;;23.70;12.70;;;;;;;;;;5035518;28;20030;-48
2021/12/21 02:34:16;;;;;;;23.77;12.57;;;;;;;;;;5035567;28;20021;-45
2021/12/21 02:36:45;;;;;;;25.00;13.60;;;;;;;;;;5035672;28;20591;-48
2021/12/21 02:39:12;;;;;;;22.92;12.43;;;;;;;;;;5035527;28;20498;-46
2021/12/21 02:41:39;;;;;;;23.05;12.95;;;;;;;;;;5036014;28;20112;-46
2021/12/21 02:44:05;;;;;;;26.58;15.00;;;;;;;;;;5035558;28;20084;-44
2021/12/21 02:46:32;;;;;;;24.20;13.23;;;;;;;;;;5035615;28;20112;-45
2021/12/21 02:48:58;;;;;;;25.35;14.43;;;;;;;;;;5035438;28;20021;-47
2021/12/21 02:51:24;;;;;;;27.25;13.48;;;;;;;;;;5035314;28;20496;-46
2021/12/21 02:53:51;;;;;;;27.80;14.50;;;;;;;;;;5035575;28;20025;-47
2021/12/21 02:56:17;;;;;;;25.63;14.80;;;;;;;;;;5035300;28;20458;-46
2021/12/21 02:58:43;;;;;;;29.08;15.05;;;;;;;;;;5035410;28;20052;-48
2021/12/21 03:01:10;;;;;;;26.38;11.60;;;;;;;;;;5035399;28;20377;-47
2021/12/21 03:03:37;;;;;;;16.73;10.25;;;;;;;;;;5034866;28;20049;-44
2021/12/21 03:06:08;;;;;;;26.55;11.88;;;;;;;;;;5034774;28;20033;-47
2021/12/21 03:08:55;;;;;;;26.98;13.27;;;;;;;;;;5035243;28;20378;-45
2021/12/21 03:11:35;;;;;;;20.98;10.65;;;;;;;;;;5035162;28;20029;-45
2021/12/21 03:14:04;;;;;;;16.00;9.25;;;;;;;;;;5035057;28;20029;-48
2021/12/21 03:16:32;;;;;;;26.55;13.10;;;;;;;;;;5034848;28;20076;-45
2021/12/21 03:18:59;;;;;;;14.35;8.35;;;;;;;;;;5034773;28;20084;-45
2021/12/21 03:21:25;;;;;;;17.10;8.77;;;;;;;;;;5034778;28;20029;-44
2021/12/21 03:23:51;;;;;;;12.25;8.25;;;;;;;;;;5034710;28;20033;-44
2021/12/21 03:26:17;;;;;;;13.77;8.70;;;;;;;;;;5034656;28;20060;-44
2021/12/21 03:28:43;;;;;;;15.15;9.27;;;;;;;;;;5034761;28;20018;-46
2021/12/21 03:31:10;;;;;;;17.38;10.50;;;;;;;;;;5034743;28;20048;-46
2021/12/21 03:33:38;;;;;;;25.15;14.10;;;;;;;;;;5034597;28;20021;-46
2021/12/21 03:36:05;;;;;;;17.67;11.20;;;;;;;;;;5034509;28;20025;-46
2021/12/21 03:38:32;;;;;;;20.58;12.15;;;;;;;;;;5034884;28;20386;-47
2021/12/21 03:41:04;;;;;;;18.10;9.50;;;;;;;;;;5034466;28;20030;-49
2021/12/21 03:43:31;;;;;;;14.25;8.63;;;;;;;;;;5034470;28;20441;-47
2021/12/21 03:46:07;;;;;;;13.48;7.97;;;;;;;;;;5034453;28;20033;-47
2021/12/21 03:48:34;;;;;;;15.90;10.70;;;;;;;;;;5034162;28;20112;-45
2021/12/21 03:51:00;;;;;;;16.17;11.25;;;;;;;;;;5034603;28;20031;-49
2021/12/21 03:53:26;;;;;;;21.27;14.13;;;;;;;;;;5034191;28;20384;-45
2021/12/21 03:56:04;;;;;;;26.25;16.45;;;;;;;;;;5034201;28;20074;-45
2021/12/21 03:58:30;;;;;;;26.80;15.93;;;;;;;;;;5034344;28;20048;-45
2021/12/21 04:00:56;;;;;;;20.27;11.48;;;;;;;;;;5034146;28;20493;-44
2021/12/21 04:03:22;;;;;;;15.82;10.45;;;;;;;;;;5033937;28;20026;-46
2021/12/21 04:05:48;;;;;;;20.20;12.63;;;;;;;;;;5034202;28;20158;-45
2021/12/21 04:08:14;;;;;;;17.40;10.05;;;;;;;;;;5032556;28;20034;-45
2021/12/21 04:10:43;;;;;;;21.15;11.45;;;;;;;;;;5034162;28;20021;-45
2021/12/21 04:13:10;;;;;;;14.13;10.48;;;;;;;;;;5033903;28;20048;-46
2021/12/21 04:15:43;;;;;;;17.40;11.85;;;;;;;;;;5033597;28;20112;-45
2021/12/21 04:18:12;;;;;;;19.67;11.38;;;;;;;;;;5033563;28;20053;-45
2021/12/21 04:20:44;;;;;;;23.95;16.15;;;;;;;;;;5033810;28;20053;-45
2021/12/21 04:23:10;;;;;;;22.65;15.45;;;;;;;;;;5033752;28;20032;-45
2021/12/21 04:25:36;;;;;;;19.38;13.50;;;;;;;;;;5033715;28;20037;-44
2021/12/21 04:28:03;;;;;;;13.98;9.23;;;;;;;;;;5033565;28;20029;-47
2021/12/21 04:30:35;;;;;;;17.70;9.85;;;;;;;;;;5033822;28;20025;-46
2021/12/21 04:33:02;;;;;;;16.10;8.07;;;;;;;;;;5033503;28;20025;-46
2021/12/21 04:35:30;;;;;;;16.65;8.25;;;;;;;;;;5033657;28;20495;-46
2021/12/21 04:38:12;;;;;;;15.20;8.63;;;;;;;;;;5033535;28;20541;-48
2021/12/21 04:40:42;;;;;;;13.07;7.93;;;;;;;;;;5033708;28;20030;-47
2021/12/21 04:43:13;;;;;;;18.77;9.25;;;;;;;;;;5033421;28;20021;-46
2021/12/21 04:45:41;;;;;;;18.38;11.27;;;;;;;;;;5033553;28;20125;-47
2021/12/21 04:48:07;;;;;;;18.00;12.77;;;;;;;;;;5033310;28;20056;-47
2021/12/21 04:50:34;;;;;;;15.70;11.30;;;;;;;;;;5033474;28;20029;-47
2021/12/21 04:53:00;;;;;;;23.35;15.45;;;;;;;;;;5033493;28;20389;-47
2021/12/21 04:55:26;;;;;;;21.08;15.02;;;;;;;;;;5033147;28;20035;-42
2021/12/21 04:57:52;;;;;;;32.58;19.10;;;;;;;;;;5033209;28;20034;-46
2021/12/21 05:00:18;;;;;;;31.60;18.65;;;;;;;;;;5033202;28;21296;-46
2021/12/21 05:02:44;;;;;;;17.55;12.85;;;;;;;;;;5033555;28;20041;-46
2021/12/21 05:05:11;;;;;;;17.10;12.02;;;;;;;;;;5033197;28;20399;-46
2021/12/21 05:07:39;;;;;;;17.90;11.98;;;;;;;;;;5033364;28;20462;-46
2021/12/21 05:10:08;;;;;;;15.48;9.80;;;;;;;;;;5033240;28;20021;-47
2021/12/21 05:12:39;;;;;;;17.20;9.50;;;;;;;;;;5032030;28;20354;-47
2021/12/21 05:15:06;;;;;;;13.93;7.00;;;;;;;;;;5033318;28;20022;-47
2021/12/21 05:17:32;;;;;;;11.93;7.00;;;;;;;;;;5033065;28;20163;-46
2021/12/21 05:19:58;;;;;;;12.73;6.88;;;;;;;;;;5032837;28;20036;-47
2021/12/21 05:22:25;;;;;;;9.65;6.57;;;;;;;;;;5033045;28;20022;-46
2021/12/21 05:24:51;;;;;;;11.63;7.10;;;;;;;;;;5032913;28;20041;-45
2021/12/21 05:27:18;;;;;;;15.32;7.80;;;;;;;;;;5033325;28;20029;-47
2021/12/21 05:29:44;;;;;;;18.13;9.43;;;;;;;;;;5036894;28;20025;-47
2021/12/21 05:32:10;;;;;;;15.95;8.77;;;;;;;;;;5036893;28;20120;-47
2021/12/21 05:34:38;;;;;;;15.43;8.27;;;;;;;;;;5036649;28;20075;-46
2021/12/21 05:37:07;;;;;;;18.92;11.77;;;;;;;;;;5036791;28;20529;-46
2021/12/21 05:39:42;;;;;;;20.20;13.73;;;;;;;;;;5036967;28;20022;-46
2021/12/21 05:42:09;;;;;;;24.65;14.52;;;;;;;;;;5036585;28;20021;-46
2021/12/21 05:44:35;;;;;;;27.77;14.80;;;;;;;;;;5036958;28;20034;-47
2021/12/21 05:47:03;;;;;;;24.85;13.65;;;;;;;;;;5036952;28;20079;-47
2021/12/21 05:49:29;;;;;;;26.13;14.05;;;;;;;;;;5036474;28;20512;-47
2021/12/21 05:52:02;;;;;;;22.80;13.50;;;;;;;;;;5036661;28;20026;-47
2021/12/21 05:54:28;;;;;;;20.73;13.40;;;;;;;;;;5036140;28;20036;-46
2021/12/21 05:56:54;;;;;;;17.30;11.25;;;;;;;;;;5036564;28;20392;-47
2021/12/21 05:59:20;;;;;;;15.15;9.15;;;;;;;;;;5036787;28;20017;-47
2021/12/21 06:01:46;;;;;;;15.93;8.90;;;;;;;;;;5036653;28;20030;-47
2021/12/21 06:04:12;;;;;;;11.57;6.55;;;;;;;;;;5036221;28;20030;-48
2021/12/21 06:06:39;;;;;;;14.25;7.55;;;;;;;;;;5036332;28;20030;-47
2021/12/21 06:09:08;;;;;;;17.80;7.63;;;;;;;;;;5036136;28;20053;-47
2021/12/21 06:11:40;;;;;;;25.30;13.88;;;;;;;;;;5034597;28;20037;-47
2021/12/21 06:27:50;;;;;;;22.98;11.73;;;;;;;;;;5014486;28;20512;-48
2021/12/21 06:30:16;;;;;;;26.27;11.77;;;;;;;;;;5014005;28;20037;-48
2021/12/21 06:32:42;;;;;;;23.50;11.48;;;;;;;;;;5013904;28;20034;-47
2021/12/21 06:35:11;;;;;;;20.23;9.88;;;;;;;;;;5013881;28;20045;-48
2021/12/21 06:37:37;;;;;;;21.70;10.82;;;;;;;;;;5014037;28;20470;-48
2021/12/21 06:40:08;;;;;;;23.75;10.73;;;;;;;;;;5012540;28;20049;-48
2021/12/21 06:42:35;;;;;;;20.98;10.63;;;;;;;;;;5013891;28;20061;-48
2021/12/21 06:45:02;;;;;;;29.67;13.55;;;;;;;;;;5013812;28;20038;-48
2021/12/21 06:52:58;;;;;;;39.00;16.88;;;;;;;;;;5019547;28;20032;-48
2021/12/21 06:55:24;;;;;;;29.17;14.93;;;;;;;;;;5035180;28;20040;-48
2021/12/21 06:57:52;;;;;;;31.42;15.48;;;;;;;;;;5034213;28;20466;-47
2021/12/21 07:00:19;;;;;;;39.95;20.83;;;;;;;;;;5035195;28;20025;-47
2021/12/21 07:02:45;;;;;;;23.67;12.27;;;;;;;;;;5035163;28;20021;-48
2021/12/21 07:05:11;;;;;;;27.48;10.57;;;;;;;;;;5033585;28;20044;-48
2021/12/21 07:07:38;;;;;;;17.60;8.82;;;;;;;;;;5035464;28;20022;-49
2021/12/21 07:10:07;;;;;;;20.00;9.77;;;;;;;;;;5035495;28;20033;-49
2021/12/21 07:18:12;;;;;;;20.40;10.35;;;;;;;;;;5034899;28;20103;-49
2021/12/21 07:20:40;;;;;;;17.88;9.60;;;;;;;;;;5034708;28;20018;-47
2021/12/21 07:23:07;;;;;;;19.58;9.50;;;;;;;;;;5034752;28;20108;-48
2021/12/21 07:25:33;;;;;;;19.52;10.40;;;;;;;;;;5034711;28;20041;-47
2021/12/21 07:27:59;;;;;;;18.25;9.05;;;;;;;;;;5034592;28;20033;-47
2021/12/21 07:30:26;;;;;;;17.92;9.20;;;;;;;;;;5034817;28;20072;-49
2021/12/21 07:32:52;;;;;;;18.27;9.40;;;;;;;;;;5034615;28;20025;-47
2021/12/21 07:35:18;;;;;;;13.02;7.60;;;;;;;;;;5034424;28;20053;-48
2021/12/21 07:37:44;;;;;;;16.92;8.70;;;;;;;;;;5034381;28;20029;-49
2021/12/21 07:40:10;;;;;;;15.13;8.32;;;;;;;;;;5034330;28;20026;-48
2021/12/21 07:42:36;;;;;;;12.75;7.35;;;;;;;;;;5034733;28;20470;-47
2021/12/21 07:45:02;;;;;;;21.23;10.48;;;;;;;;;;5034384;28;20041;-48
2021/12/21 07:47:31;;;;;;;14.40;7.50;;;;;;;;;;5034279;28;20029;-48
2021/12/21 07:49:57;;;;;;;14.20;7.50;;;;;;;;;;5033073;28;20048;-51
2021/12/21 07:52:23;;;;;;;11.73;6.80;;;;;;;;;;5033856;28;20029;-46
2021/12/21 07:54:52;;;;;;;15.23;6.45;;;;;;;;;;5034142;28;20037;-47
2021/12/21 07:57:18;;;;;;;13.07;6.97;;;;;;;;;;5034178;28;20032;-48
2021/12/21 07:59:44;;;;;;;15.75;8.93;;;;;;;;;;5034107;28;20568;-58
2021/12/21 08:02:10;;;;;;;22.45;10.48;;;;;;;;;;5034154;28;20028;-49
2021/12/21 08:04:38;;;;;;;18.15;8.63;;;;;;;;;;5033750;28;20025;-52
2021/12/21 08:07:10;;;;;;;15.70;7.97;;;;;;;;;;5033984;28;20026;-51
2021/12/21 08:09:43;;;;;;;16.10;8.25;;;;;;;;;;5034195;28;20389;-50
2021/12/21 08:14:38;;;;;;;24.30;10.18;;;;;;;;;;5033785;28;20163;-47
2021/12/21 08:17:04;;;;;;;14.82;8.43;;;;;;;;;;5033861;28;20143;-48
2021/12/21 08:19:31;;;;;;;15.75;7.93;;;;;;;;;;5033777;28;20029;-47
2021/12/21 08:21:57;;;;;;;14.80;6.90;;;;;;;;;;5033874;28;20029;-49
2021/12/21 08:24:23;;;;;;;31.17;10.20;;;;;;;;;;5033619;28;20075;-47
2021/12/21 08:26:49;;;;;;;26.60;9.25;;;;;;;;;;5033609;28;20056;-47
2021/12/21 08:29:15;;;;;;;33.20;9.30;;;;;;;;;;5033528;28;20028;-47
2021/12/21 08:31:41;;;;;;;34.38;12.20;;;;;;;;;;5033530;28;20028;-48
2021/12/21 08:34:10;;;;;;;49.05;16.17;;;;;;;;;;5033818;28;20112;-47
2021/12/21 08:36:37;;;;;;;70.85;20.27;;;;;;;;;;5033354;28;20090;-47
2021/12/21 08:39:07;;;;;;;95.38;28.02;;;;;;;;;;5032245;28;20044;-47
2021/12/21 08:41:38;;;;;;;74.45;23.08;;;;;;;;;;5033561;28;20053;-50
2021/12/21 08:44:05;;;;;;;48.15;16.88;;;;;;;;;;5033444;28;20017;-48
2021/12/21 08:46:33;;;;;;;54.47;17.17;;;;;;;;;;5033631;28;20041;-47
2021/12/21 08:48:59;;;;;;;45.08;14.48;;;;;;;;;;5033384;28;20096;-48
2021/12/21 08:51:25;;;;;;;26.85;8.45;;;;;;;;;;5033127;28;20025;-48
2021/12/21 08:53:56;;;;;;;33.33;11.60;;;;;;;;;;5033319;28;20017;-46
2021/12/21 08:56:22;;;;;;;35.08;12.95;;;;;;;;;;5033408;28;20060;-51
2021/12/21 08:58:48;;;;;;;28.42;10.63;;;;;;;;;;5033221;28;20021;-51
2021/12/21 09:01:14;;;;;;;39.70;12.93;;;;;;;;;;5033278;28;20033;-53
2021/12/21 09:03:42;;;;;;;42.80;14.40;;;;;;;;;;5035614;28;20021;-53
2021/12/21 09:06:08;;;;;;;30.83;13.07;;;;;;;;;;5035987;28;20065;-50
2021/12/21 09:08:38;;;;;;;41.20;17.58;;;;;;;;;;5037233;28;20139;-53
2021/12/21 09:11:07;;;;;;;40.28;15.55;;;;;;;;;;5037651;28;20025;-49
2021/12/21 09:13:35;;;;;;;39.03;11.52;;;;;;;;;;5037457;28;20024;-51
2021/12/21 09:16:01;;;;;;;43.35;15.65;;;;;;;;;;5037011;28;20025;-50
2021/12/21 09:18:28;;;;;;;37.53;13.23;;;;;;;;;;5037051;28;20029;-48
2021/12/21 09:20:54;;;;;;;42.38;15.43;;;;;;;;;;5036855;28;20021;-44
2021/12/21 09:23:21;;;;;;;30.75;10.85;;;;;;;;;;5037080;28;20442;-49
2021/12/21 09:25:49;;;;;;;62.90;27.08;;;;;;;;;;5036826;28;20068;-48
2021/12/21 09:28:15;;;;;;;45.47;22.70;;;;;;;;;;5036805;28;20022;-50
2021/12/21 09:30:44;;;;;;;19.83;10.15;;;;;;;;;;5036772;28;20079;-46
2021/12/21 09:33:12;;;;;;;41.47;18.45;;;;;;;;;;5036604;28;20030;-49
2021/12/21 09:35:38;;;;;;;49.40;18.38;;;;;;;;;;5036759;28;20021;-50
2021/12/21 09:38:05;;;;;;;26.65;10.15;;;;;;;;;;5036722;28;20049;-47
2021/12/21 09:40:31;;;;;;;32.40;14.70;;;;;;;;;;5036603;28;20056;-46
2021/12/21 09:43:03;;;;;;;26.20;9.93;;;;;;;;;;5036495;28;20028;-50
2021/12/21 09:45:29;;;;;;;24.35;9.52;;;;;;;;;;5036403;28;20155;-50
2021/12/21 09:47:55;;;;;;;33.28;15.93;;;;;;;;;;5036475;28;20105;-46
2021/12/21 09:50:22;;;;;;;17.73;9.15;;;;;;;;;;5036623;28;20101;-49
2021/12/21 09:52:48;;;;;;;23.92;11.05;;;;;;;;;;5036366;28;20033;-50
2021/12/21 09:55:18;;;;;;;52.33;20.10;;;;;;;;;;5036238;28;20127;-46
2021/12/21 09:57:45;;;;;;;51.70;16.80;;;;;;;;;;5036193;28;20021;-48
2021/12/21 10:00:13;;;;;;;58.20;23.52;;;;;;;;;;5036186;28;20029;-48
2021/12/21 10:02:41;;;;;;;34.42;13.88;;;;;;;;;;5036183;28;20025;-50
2021/12/21 10:05:12;;;;;;;42.42;18.33;;;;;;;;;;5035912;28;20033;-49
2021/12/21 10:07:38;;;;;;;78.68;28.75;;;;;;;;;;5036028;28;20036;-45
2021/12/21 10:10:07;;;;;;;79.25;32.38;;;;;;;;;;5035922;28;20021;-47
2021/12/21 10:12:37;;;;;;;80.10;34.38;;;;;;;;;;5035968;28;20029;-47
2021/12/21 10:15:14;;;;;;;95.90;40.28;;;;;;;;;;5034650;28;20108;-43
2021/12/21 10:17:48;;;;;;;18.88;8.63;;;;;;;;;;5035411;28;20528;-42
2021/12/21 10:20:15;;;;;;;28.92;9.80;;;;;;;;;;5035468;28;20500;-44
2021/12/21 10:22:50;;;;;;;67.25;30.02;;;;;;;;;;5035717;28;20028;-45
2021/12/21 10:25:16;;;;;;;65.22;31.52;;;;;;;;;;5035434;28;20501;-44
2021/12/21 10:27:46;;;;;;;57.83;28.25;;;;;;;;;;5035602;28;20545;-44
2021/12/21 10:30:13;;;;;;;26.88;12.27;;;;;;;;;;5035814;28;20029;-44
2021/12/21 10:32:48;;;;;;;42.95;19.88;;;;;;;;;;5035703;28;20608;-45
2021/12/21 10:35:14;;;;;;;20.58;9.10;;;;;;;;;;5035455;28;20073;-44
2021/12/21 10:37:42;;;;;;;53.65;9.18;;;;;;;;;;5035461;28;20036;-45
2021/12/21 10:40:28;;;;;;;28.20;12.20;;;;;;;;;;5034111;28;20030;-46
2021/12/21 10:42:58;;;;;;;25.25;11.10;;;;;;;;;;5035720;28;20377;-46
2021/12/21 10:45:35;;;;;;;80.85;37.17;;;;;;;;;;5035087;28;20037;-47
2021/12/21 10:48:03;;;;;;;88.82;34.35;;;;;;;;;;5035484;28;20036;-44
2021/12/21 10:50:33;;;;;;;54.72;23.02;;;;;;;;;;5035170;28;20021;-42
2021/12/21 10:53:00;;;;;;;22.77;9.43;;;;;;;;;;5035362;28;20033;-44
2021/12/21 10:55:37;;;;;;;27.92;10.68;;;;;;;;;;5035033;28;20025;-47
2021/12/21 10:58:18;;;;;;;10.25;5.95;;;;;;;;;;5033917;28;20149;-49
2021/12/21 11:00:44;;;;;;;;;;;;;;;;;;5035462;28;20083;-45
2021/12/21 11:03:11;;;;;;;38.75;18.08;;;;;;;;;;5035094;28;19905;-47
2021/12/21 11:05:38;;;;;;;45.85;13.75;;;;;;;;;;5034599;28;20060;-49
2021/12/21 11:08:14;;;;;;;16.33;6.97;;;;;;;;;;5034849;28;20029;-45
2021/12/21 11:10:48;;;;;;;8.48;3.50;;;;;;;;;;5034830;28;20048;-46
2021/12/21 11:13:14;;;;;;;51.97;21.63;;;;;;;;;;5034655;28;20034;-49
2021/12/21 11:15:43;;;;;;;43.03;20.58;;;;;;;;;;5034793;28;20025;-50
2021/12/21 11:18:12;;;;;;;51.05;17.58;;;;;;;;;;5034443;28;20053;-47
2021/12/21 11:20:40;;;;;;;48.40;17.73;;;;;;;;;;5033370;28;20068;-49
2021/12/21 11:23:06;;;;;;;59.75;23.90;;;;;;;;;;5034920;28;20087;-47
2021/12/21 11:25:34;;;;;;;11.63;6.47;;;;;;;;;;5034130;28;20068;-48
2021/12/21 11:28:02;;;;;;;13.43;7.18;;;;;;;;;;5034379;28;20033;-44
2021/12/21 11:30:28;;;;;;;65.90;29.77;;;;;;;;;;5034417;28;20025;-45
2021/12/21 11:32:56;;;;;;;88.97;37.83;;;;;;;;;;5034437;28;20030;-47
2021/12/21 11:37:53;;;;;;;16.00;6.97;;;;;;;;;;5034693;28;20037;-47
2021/12/21 11:40:23;;;;;;;11.38;6.35;;;;;;;;;;5034551;28;20481;-48
2021/12/21 11:42:52;;;;;;;10.60;6.25;;;;;;;;;;5034329;28;20034;-54
2021/12/21 11:45:23;;;;;;;16.05;7.00;;;;;;;;;;5034123;28;20061;-56
2021/12/21 11:48:03;;;;;;;12.60;7.47;;;;;;;;;;5034112;28;20540;-53
2021/12/21 11:50:29;;;;;;;16.27;7.43;;;;;;;;;;5034151;28;20020;-54
2021/12/21 11:53:07;;;;;;;35.95;15.20;;;;;;;;;;5034160;28;20025;-57
2021/12/21 11:55:34;;;;;;;47.05;16.70;;;;;;;;;;5033862;28;20049;-55
2021/12/21 11:58:20;;;;;;;31.67;12.27;;;;;;;;;;5034240;28;20026;-54
2021/12/21 12:00:48;;;;;;;44.67;18.35;;;;;;;;;;5033894;28;20080;-54
2021/12/21 12:03:18;;;;;;;12.25;6.63;;;;;;;;;;5033970;28;20114;-55
2021/12/21 12:05:52;;;;;;;11.82;5.78;;;;;;;;;;5033637;28;20473;-56
2021/12/21 12:08:21;;;;;;;12.85;6.50;;;;;;;;;;5033893;28;20025;-57
2021/12/21 12:10:49;;;;;;;15.25;6.43;;;;;;;;;;5033721;28;20060;-58
2021/12/21 12:13:26;;;;;;;23.25;11.85;;;;;;;;;;5033749;28;20028;-56
2021/12/21 12:15:53;;;;;;;49.75;22.55;;;;;;;;;;5033513;28;20026;-53
2021/12/21 12:18:20;;;;;;;53.95;22.35;;;;;;;;;;5014044;28;20088;-55
2021/12/21 12:20:46;;;;;;;32.20;14.80;;;;;;;;;;5014388;28;20057;-52
2021/12/21 12:23:16;;;;;;;31.58;14.95;;;;;;;;;;5014139;28;20172;-53
2021/12/21 12:25:51;;;;;;;28.85;14.02;;;;;;;;;;5013767;28;20030;-48
2021/12/21 12:28:49;;;;;;;26.85;12.70;;;;;;;;;;5013725;28;20026;-51
2021/12/21 12:31:28;;;;;;;24.25;13.02;;;;;;;;;;4972642;28;20035;-48
2021/12/21 12:33:54;;;;;;;35.17;15.15;;;;;;;;;;4972721;28;20101;-48
2021/12/21 12:36:32;;;;;;;19.63;9.32;;;;;;;;;;4972738;28;20135;-51
2021/12/21 12:38:58;;;;;;;17.50;8.88;;;;;;;;;;4972392;28;20027;-48
2021/12/21 12:41:24;;;;;;;15.57;7.80;;;;;;;;;;4972733;28;20511;-54
2021/12/21 12:43:50;;;;;;;16.77;6.88;;;;;;;;;;4972627;28;20185;-50
2021/12/21 12:46:26;;;;;;;18.70;6.18;;;;;;;;;;4972461;28;20041;-50
2021/12/21 12:48:53;;;;;;;17.67;6.82;;;;;;;;;;4972516;28;20023;-46
2021/12/21 12:51:29;;;;;;;7.78;4.65;;;;;;;;;;4956468;28;20463;-47
2021/12/21 12:53:56;;;;;;;11.73;7.22;;;;;;;;;;4972700;28;20085;-46
2021/12/21 12:56:22;;;;;;;10.15;5.38;;;;;;;;;;4972406;28;20593;-52
2021/12/21 12:58:53;;;;;;;15.77;6.28;;;;;;;;;;4972498;28;20042;-52
2021/12/21 13:01:23;;;;;;;11.95;6.35;;;;;;;;;;4972726;28;20043;-57
2021/12/21 13:03:50;;;;;;;11.98;5.70;;;;;;;;;;4972778;28;20031;-54
2021/12/21 13:06:22;;;;;;;9.55;5.10;;;;;;;;;;4981730;28;20068;-55
2021/12/21 13:08:49;;;;;;;7.65;4.85;;;;;;;;;;5013623;28;20410;-55
2021/12/21 13:11:18;;;;;;;17.92;8.77;;;;;;;;;;5013562;28;20096;-50
2021/12/21 13:13:46;;;;;;;17.08;8.10;;;;;;;;;;5013625;28;20105;-49
2021/12/21 13:16:14;;;;;;;14.30;7.75;;;;;;;;;;5016164;28;20059;-47
2021/12/21 13:18:47;;;;;;;9.20;5.28;;;;;;;;;;5033214;28;20022;-47
2021/12/21 13:21:32;;;;;;;13.73;6.45;;;;;;;;;;5032987;28;20029;-52
2021/12/21 13:24:01;;;;;;;18.65;8.70;;;;;;;;;;5033093;28;20029;-53
2021/12/21 13:26:41;;;;;;;14.35;7.57;;;;;;;;;;5032773;28;20112;-49
2021/12/21 13:29:10;;;;;;;16.63;8.70;;;;;;;;;;5033456;28;20526;-47
2021/12/21 13:31:39;;;;;;;25.58;11.65;;;;;;;;;;5032950;28;20109;-47
2021/12/21 13:34:05;;;;;;;33.15;15.95;;;;;;;;;;5033088;28;20017;-52
2021/12/21 13:36:41;;;;;;;27.15;13.20;;;;;;;;;;5033043;28;20033;-50
2021/12/21 13:39:16;;;;;;;16.45;7.22;;;;;;;;;;5032851;28;20076;-50
2021/12/21 13:41:52;;;;;;;14.30;7.32;;;;;;;;;;5033078;28;20022;-53
2021/12/21 13:44:22;;;;;;;23.83;12.88;;;;;;;;;;5032963;28;20018;-53
2021/12/21 13:46:51;;;;;;;25.03;12.60;;;;;;;;;;5032875;28;20033;-55
2021/12/21 13:49:17;;;;;;;28.10;13.23;;;;;;;;;;5035255;28;20018;-55
2021/12/21 13:51:50;;;;;;;27.38;10.88;;;;;;;;;;5036360;28;20027;-56
2021/12/21 13:54:22;;;;;;;24.98;8.07;;;;;;;;;;5036307;28;20056;-55
2021/12/21 13:56:48;;;;;;;;;;;;;;;;;;5036982;28;20025;-48
2021/12/21 13:59:15;;;;;;;23.50;11.25;;;;;;;;;;5036505;28;20020;-51
2021/12/21 14:01:48;;;;;;;28.85;14.70;;;;;;;;;;5035235;28;20159;-49
2021/12/21 14:04:16;;;;;;;30.38;14.77;;;;;;;;;;5036731;28;20022;-49
2021/12/21 14:06:42;;;;;;;23.05;11.48;;;;;;;;;;5036326;28;20436;-54
2021/12/21 14:09:12;;;;;;;25.30;11.43;;;;;;;;;;5036163;28;20025;-55
2021/12/21 14:11:39;;;;;;;26.20;13.43;;;;;;;;;;5036035;28;20021;-55
2021/12/21 14:14:13;;;;;;;28.35;14.52;;;;;;;;;;5036364;28;20060;-54
2021/12/21 14:16:40;;;;;;;31.48;14.38;;;;;;;;;;5036342;28;20091;-54
2021/12/21 14:19:07;;;;;;;48.00;21.40;;;;;;;;;;5035932;28;20021;-54
2021/12/21 14:21:39;;;;;;;45.67;19.30;;;;;;;;;;5035896;28;20021;-54
2021/12/21 14:24:10;;;;;;;37.80;18.02;;;;;;;;;;5035983;28;20381;-54
2021/12/21 14:26:42;;;;;;;34.72;16.55;;;;;;;;;;5035839;28;20045;-54
2021/12/21 14:29:12;;;;;;;44.15;18.65;;;;;;;;;;5035888;28;20025;-54
2021/12/21 14:32:16;;;;;;;40.97;19.02;;;;;;;;;;5035180;28;20103;-53
2021/12/21 14:34:47;;;;;;;37.85;17.30;;;;;;;;;;4975126;28;20113;-53
2021/12/21 14:37:17;;;;;;;37.33;16.98;;;;;;;;;;4974805;28;20033;-53
2021/12/21 14:39:46;;;;;;;36.45;16.77;;;;;;;;;;4974901;28;20035;-53
2021/12/21 14:42:16;;;;;;;36.40;17.35;;;;;;;;;;4974794;28;20031;-55
2021/12/21 14:44:46;;;;;;;45.95;18.35;;;;;;;;;;4974699;28;20388;-55
2021/12/21 14:47:13;;;;;;;41.83;18.17;;;;;;;;;;4974680;28;20038;-55
2021/12/21 14:49:45;;;;;;;37.72;20.20;;;;;;;;;;4974805;28;20050;-55
2021/12/21 14:52:23;;;;;;;53.75;28.35;;;;;;;;;;4974381;28;20035;-54
2021/12/21 14:54:53;;;;;;;60.85;31.58;;;;;;;;;;4974365;28;20023;-54
2021/12/21 14:57:29;;;;;;;52.63;28.60;;;;;;;;;;4974916;28;20106;-54
2021/12/21 14:59:56;;;;;;;50.22;27.10;;;;;;;;;;4973905;28;20031;-55
2021/12/21 15:04:58;;;;;;;58.85;26.50;;;;;;;;;;4974516;28;20065;-53
2021/12/21 15:07:24;;;;;;;69.15;31.15;;;;;;;;;;4973965;28;20039;-55
2021/12/21 15:09:53;;;;;;;79.90;36.03;;;;;;;;;;4974358;28;20030;-55
2021/12/21 15:12:20;;;;;;;88.60;38.05;;;;;;;;;;5024896;28;20060;-55
2021/12/21 15:14:47;;;;;;;100.00;38.72;;;;;;;;;;5035179;28;20024;-54
2021/12/21 15:17:13;;;;;;;101.97;42.08;;;;;;;;;;5034858;28;20081;-55
2021/12/21 15:19:39;;;;;;;117.70;50.35;;;;;;;;;;5035184;28;20048;-56
2021/12/21 15:22:08;;;;;;;129.93;58.55;;;;;;;;;;5034788;28;20048;-56
2021/12/21 15:24:34;;;;;;;153.70;69.30;;;;;;;;;;5034990;28;20068;-54
2021/12/21 15:27:05;;;;;;;151.00;70.63;;;;;;;;;;5034752;28;20072;-55
2021/12/21 15:29:31;;;;;;;165.75;73.85;;;;;;;;;;5034823;28;20029;-53